Yellow Mule RAWS (NWS)

Jump to table bottom
Date/Time Wind Direction Wind Speed knots Wind Gust knots RH % Accumulated Precip Inches Air Temp Fahrenheit
2022-08-13 10:04 S 3 6 43 10.48 72
2022-08-13 09:04 S 3 6 50 10.48 67
2022-08-13 08:04 S 3 5 58 10.48 59
2022-08-13 07:04 S 3 5 71 10.48 53
2022-08-13 06:04 E 2 7 67 10.48 53
2022-08-13 05:04 SSW 3 7 70 10.48 53
2022-08-13 04:04 S 6 13 69 10.48 54
2022-08-13 03:04 SSE 11 17 68 10.48 54
2022-08-13 02:04 SSE 8 12 82 10.48 52
2022-08-13 01:04 SSE 9 10 89 10.48 51
2022-08-13 00:04 ESE 3 11 74 10.48 51
2022-08-12 23:04 NNE 4 15 75 10.48 52
2022-08-12 22:04 N 6 19 58 10.48 57
2022-08-12 21:04 SSE 10 13 53 10.48 60
2022-08-12 20:04 W 3 5 49 10.48 64
2022-08-12 19:04 WNW 2 7 45 10.48 66
2022-08-12 18:04 SW 5 7 42 10.48 67
2022-08-12 17:04 WNW 2 7 39 10.48 69
2022-08-12 16:04 N 3 10 36 10.48 72
2022-08-12 15:04 N 4 10 37 10.48 70
2022-08-12 14:04 NNE 3 10 41 10.48 67
2022-08-12 13:04 NNE 6 10 39 10.48 71
2022-08-12 12:04 NE 4 10 41 10.48 71
2022-08-12 11:04 SW 3 8 36 10.48 73
2022-08-12 10:04 SE 4 7 37 10.48 70
2022-08-12 09:04 SSE 3 4 49 10.48 63
2022-08-12 08:04 E 3 5 52 10.48 59
2022-08-12 07:04 SE 2 4 59 10.48 54
2022-08-12 06:04 SE 2 5 60 10.48 54